Weather reports worldwide

Advertisment
Otranto, Italy (16334): temperature & dewpoint: 11.07.2019 07:00:00 - 17.07.2019 07:00:00 (CEST)Otranto, Italy (16334): wind speed: 11.07.2019 07:00:00 - 17.07.2019 07:00:00 (CEST)Otranto, Italy (16334): wind direction: 11.07.2019 07:00:00 - 17.07.2019 07:00:00 (CEST)Otranto, Italy (16334): reduced air pressure: 11.07.2019 07:00:00 - 17.07.2019 07:00:00 (CEST)
Date & Time tt [°C] td [°C] ff [km/h] ff [kn] dd ppp [hPa]
17.07.2019 07:00:00 - - - - - -
17.07.2019 06:00:00 22,6 21,5 18 10 N 1007,8
17.07.2019 05:00:00 22,8 21,4 18 10 N 1007,7
17.07.2019 04:00:00 22,6 22,2 16 9 N 1007,6
17.07.2019 03:00:00 22,7 22,5 18 10 N 1007,8
17.07.2019 02:00:00 22,6 21,5 22 12 NNE 1008,3
17.07.2019 01:00:00 22,1 20,7 18 10 N 1008,7
17.07.2019 00:00:00 21,7 21,5 24 13 N 1008,5
16.07.2019 23:00:00 21,0 20,9 22 12 NNE 1008,0
16.07.2019 22:00:00 20,1 20,0 24 13 NNE 1007,7
16.07.2019 21:00:00 19,8 19,7 22 12 N 1006,9
16.07.2019 20:00:00 19,8 19,7 22 12 NNE 1006,1
16.07.2019 19:00:00 19,7 19,6 22 12 N 1006,0
16.07.2019 18:00:00 19,5 19,4 18 10 NE 1006,1
16.07.2019 17:00:00 20,9 20,8 5 3 N 1006,0
16.07.2019 16:00:00 20,4 20,3 9 5 NE 1005,9
16.07.2019 15:00:00 20,7 20,6 9 5 N 1005,9
16.07.2019 14:00:00 20,6 20,5 2 1 W 1005,9
16.07.2019 13:00:00 20,0 19,9 8 4 ESE 1006,1
16.07.2019 12:00:00 19,5 19,4 11 6 NNE 1006,2
16.07.2019 11:00:00 18,3 18,2 8 4 NE 1006,0
16.07.2019 10:00:00 17,7 17,6 8 4 WNW 1007,3
16.07.2019 09:00:00 17,8 17,7 13 7 WNW 1007,4
16.07.2019 08:00:00 18,6 18,5 13 7 NW 1006,8
16.07.2019 07:00:00 20,5 20,4 13 7 NNW 1005,6
16.07.2019 06:00:00 21,3 21,2 5 3 NW 1005,5
16.07.2019 05:00:00 21,5 21,4 4 2 WNW 1005,4
16.07.2019 04:00:00 21,7 21,6 4 2 W 1006,0
16.07.2019 03:00:00 21,7 21,6 4 2 WNW 1006,4
16.07.2019 02:00:00 21,7 21,6 4 2 W 1007,2
16.07.2019 01:00:00 21,8 21,6 4 2 WSW 1007,7
16.07.2019 00:00:00 21,8 20,4 0 0 N 1008,0
15.07.2019 23:00:00 22,1 20,7 2 1 WNW 1008,2
15.07.2019 22:00:00 22,4 21,0 5 3 W 1008,0
15.07.2019 21:00:00 23,2 21,8 5 3 SW 1007,5
15.07.2019 20:00:00 24,3 22,7 8 4 SSW 1007,4
15.07.2019 19:00:00 25,2 23,6 13 7 S 1006,9
15.07.2019 18:00:00 25,0 23,6 13 7 S 1007,0
15.07.2019 17:00:00 25,8 24,2 8 4 SE 1007,2
15.07.2019 16:00:00 25,4 25,0 8 4 ESE 1007,2
15.07.2019 15:00:00 25,0 23,4 9 5 S 1007,1
15.07.2019 14:00:00 25,3 24,9 8 4 E 1007,3
15.07.2019 13:00:00 26,0 24,4 15 8 N 1007,4
15.07.2019 12:00:00 25,1 24,9 13 7 NNE 1007,6
15.07.2019 11:00:00 25,7 25,1 15 8 NNE 1007,6
15.07.2019 10:00:00 24,9 24,8 13 7 NNW 1007,5
15.07.2019 09:00:00 23,4 23,3 8 4 N 1007,0
15.07.2019 08:00:00 22,6 22,5 8 4 W 1007,7
15.07.2019 07:00:00 21,6 21,5 5 3 SW 1007,8
15.07.2019 06:00:00 19,5 19,4 9 5 NW 1007,2
15.07.2019 05:00:00 19,5 19,4 9 5 NNW 1006,6
15.07.2019 04:00:00 19,4 19,3 11 6 NW 1007,4
15.07.2019 03:00:00 19,5 19,4 9 5 NW 1007,9
15.07.2019 02:00:00 19,8 19,7 9 5 WNW 1008,8
15.07.2019 01:00:00 19,8 19,7 9 5 WNW 1009,0
15.07.2019 00:00:00 20,4 20,3 9 5 NNW 1008,9
14.07.2019 23:00:00 21,0 20,6 11 6 NW 1009,1
14.07.2019 22:00:00 22,0 20,6 15 8 NNW 1009,1
14.07.2019 21:00:00 22,5 21,4 15 8 NNW 1008,6
14.07.2019 20:00:00 23,7 21,7 21 11 NNW 1008,3
14.07.2019 19:00:00 24,7 22,3 26 14 NNW 1007,9
14.07.2019 18:00:00 25,4 22,8 26 14 N 1008,2
14.07.2019 17:00:00 25,9 22,7 28 15 NNW 1008,2
14.07.2019 16:00:00 26,4 23,0 28 15 NNW 1008,3
14.07.2019 15:00:00 26,9 24,1 26 14 N 1008,3
14.07.2019 14:00:00 26,5 23,7 26 14 NNW 1008,3
14.07.2019 13:00:00 25,9 24,3 24 13 NNW 1008,2
14.07.2019 12:00:00 25,8 24,2 21 11 N 1008,0
14.07.2019 11:00:00 25,5 23,9 21 11 N 1007,6
14.07.2019 10:00:00 24,6 24,5 24 13 N 1007,2
14.07.2019 09:00:00 23,5 23,4 24 13 NNW 1007,1
14.07.2019 08:00:00 22,0 21,9 18 10 NNW 1006,7
14.07.2019 07:00:00 20,7 20,6 9 5 NW 1006,6
14.07.2019 06:00:00 20,7 20,6 11 6 NW 1006,5
14.07.2019 05:00:00 20,8 20,7 11 6 NW 1006,4
14.07.2019 04:00:00 20,7 20,6 15 8 NW 1006,5
14.07.2019 03:00:00 20,2 20,1 13 7 NNW 1006,7
14.07.2019 02:00:00 20,3 20,2 9 5 NW 1007,2
14.07.2019 01:00:00 21,1 21,0 9 5 NW 1007,6
14.07.2019 00:00:00 22,2 22,1 9 5 S 1007,3
13.07.2019 23:00:00 22,3 22,2 8 4 S 1007,3
13.07.2019 22:00:00 21,1 21,0 11 6 E 1006,9
13.07.2019 21:00:00 20,6 20,5 15 8 SE 1006,8
13.07.2019 20:00:00 20,7 20,6 31 17 N 1007,9
13.07.2019 19:00:00 24,7 24,6 16 9 SE 1006,9
13.07.2019 18:00:00 25,4 25,3 22 12 S 1006,8
13.07.2019 17:00:00 26,7 26,7 28 15 S 1007,2
13.07.2019 16:00:00 - - - - - -
13.07.2019 15:00:00 27,0 25,4 26 14 SSE 1008,6
13.07.2019 14:00:00 27,2 25,5 26 14 S 1009,5
13.07.2019 13:00:00 27,1 25,5 22 12 S 1009,9
13.07.2019 12:00:00 26,9 25,3 18 10 S 1010,2
13.07.2019 11:00:00 26,0 24,4 15 8 SSW 1010,3
13.07.2019 10:00:00 25,6 24,0 11 6 S 1010,5
13.07.2019 09:00:00 24,6 24,0 11 6 S 1010,9
13.07.2019 08:00:00 23,7 23,6 8 4 SSE 1011,0
13.07.2019 07:00:00 21,2 21,1 0 0 N 1010,9
13.07.2019 06:00:00 19,8 19,7 4 2 W 1010,8
13.07.2019 05:00:00 20,5 20,4 4 2 NNW 1010,7
13.07.2019 04:00:00 20,3 20,2 5 3 NW 1011,1
13.07.2019 03:00:00 20,4 20,3 8 4 NW 1011,4
13.07.2019 02:00:00 20,2 20,1 8 4 NW 1011,7
13.07.2019 01:00:00 20,1 20,0 9 5 WNW 1012,1
13.07.2019 00:00:00 20,3 20,2 9 5 NW 1012,2
12.07.2019 23:00:00 20,7 20,6 8 4 W 1012,0
12.07.2019 22:00:00 21,3 21,2 8 4 W 1012,3
12.07.2019 21:00:00 21,2 20,8 11 6 SW 1012,1
12.07.2019 20:00:00 23,2 21,4 11 6 WSW 1012,7
12.07.2019 19:00:00 24,9 23,1 9 5 SW 1011,9
12.07.2019 18:00:00 25,3 23,3 9 5 S 1011,2
12.07.2019 17:00:00 26,7 24,1 8 4 SE 1011,4
12.07.2019 16:00:00 - - - - - -
12.07.2019 15:00:00 27,2 24,6 9 5 E 1012,0
12.07.2019 14:00:00 27,2 24,6 16 9 NNE 1011,7
12.07.2019 13:00:00 26,8 24,0 16 9 NNE 1011,8
12.07.2019 12:00:00 26,6 24,0 16 9 E 1012,2
12.07.2019 11:00:00 26,6 24,0 15 8 N 1012,2
12.07.2019 10:00:00 26,3 24,1 15 8 N 1011,9
12.07.2019 09:00:00 25,5 23,1 15 8 N 1012,0
12.07.2019 08:00:00 24,6 23,5 11 6 NNW 1011,7
12.07.2019 07:00:00 21,2 19,8 9 5 NW 1011,8
12.07.2019 06:00:00 19,2 18,0 9 5 NNW 1011,6
12.07.2019 05:00:00 19,6 18,4 9 5 NW 1011,2
12.07.2019 04:00:00 19,5 18,3 9 5 NW 1011,1
12.07.2019 03:00:00 19,5 18,3 11 6 NNW 1011,2
12.07.2019 02:00:00 19,5 18,3 11 6 NW 1011,5
12.07.2019 01:00:00 19,5 18,6 9 5 WNW 1011,7
12.07.2019 00:00:00 20,6 18,7 15 8 NNW 1011,7
11.07.2019 23:00:00 20,7 18,6 11 6 NW 1011,8
11.07.2019 22:00:00 22,1 19,4 15 8 NNW 1011,8
11.07.2019 21:00:00 22,6 19,9 16 9 NNW 1011,2
11.07.2019 20:00:00 23,4 20,1 26 14 NNW 1011,0
11.07.2019 19:00:00 24,6 20,7 28 15 N 1010,6
11.07.2019 18:00:00 25,5 22,1 28 15 N 1010,4
11.07.2019 17:00:00 25,3 22,5 31 17 N 1010,2
11.07.2019 16:00:00 25,8 22,0 29 16 NNW 1010,3
11.07.2019 15:00:00 26,1 22,1 29 16 N 1010,3
11.07.2019 14:00:00 26,0 22,0 31 17 N 1010,2
11.07.2019 13:00:00 26,2 21,8 31 17 NNE 1010,2
11.07.2019 12:00:00 25,6 22,0 28 15 N 1010,2
11.07.2019 11:00:00 25,0 22,2 28 15 NNW 1009,9
11.07.2019 10:00:00 25,0 21,9 26 14 N 1009,6
11.07.2019 09:00:00 24,7 22,3 26 14 N 1009,2
11.07.2019 08:00:00 24,3 22,1 24 13 NNW 1008,8
11.07.2019 07:00:00 23,1 22,0 21 11 NNW 1008,4

tt = temperature
td = dewpoint
ff = wind speed
dd = wind direction
ppp = reduced air pressure

Next stations